createdAt,value
2022-08-17T00:02:26.167Z,99.90
2022-08-17T00:04:55.280Z,99.90
2022-08-17T00:07:23.114Z,99.90
2022-08-17T00:09:50.442Z,99.90
2022-08-17T00:12:41.176Z,99.90
2022-08-17T00:15:10.466Z,99.90
2022-08-17T00:17:37.910Z,99.90
2022-08-17T00:20:05.762Z,99.90
2022-08-17T00:22:36.546Z,99.90
2022-08-17T00:25:13.945Z,99.90
2022-08-17T00:27:41.489Z,99.90
2022-08-17T00:30:11.481Z,99.90
2022-08-17T00:33:12.285Z,99.90
2022-08-17T00:35:32.443Z,99.90
2022-08-17T00:37:59.696Z,99.90
2022-08-17T00:40:27.020Z,99.90
2022-08-17T00:43:13.745Z,99.90
2022-08-17T00:45:41.654Z,99.90
2022-08-17T00:48:11.530Z,99.90
2022-08-17T00:51:07.625Z,99.90
2022-08-17T00:53:39.152Z,99.90
2022-08-17T00:56:08.925Z,99.90
2022-08-17T00:58:37.516Z,99.90
2022-08-17T01:01:06.791Z,99.90
2022-08-17T01:03:34.835Z,99.90
2022-08-17T01:06:04.526Z,99.90
2022-08-17T01:08:34.215Z,99.90
2022-08-17T01:11:02.680Z,99.90
2022-08-17T01:13:40.763Z,99.90
2022-08-17T01:16:21.949Z,99.90
2022-08-17T01:18:53.449Z,99.90
2022-08-17T01:21:43.891Z,99.90
2022-08-17T01:24:11.047Z,99.90
2022-08-17T01:26:42.255Z,99.90
2022-08-17T01:29:10.239Z,99.90
2022-08-17T01:31:43.222Z,99.90
2022-08-17T01:34:12.524Z,99.90
2022-08-17T01:36:41.740Z,99.90
2022-08-17T01:39:18.082Z,99.90
2022-08-17T01:41:48.421Z,99.90
2022-08-17T01:44:16.707Z,99.90
2022-08-17T01:46:43.908Z,99.90
2022-08-17T01:49:12.230Z,99.90
2022-08-17T01:51:39.870Z,99.90
2022-08-17T01:54:18.716Z,99.90
2022-08-17T01:56:50.041Z,99.90
2022-08-17T01:59:18.654Z,99.90
2022-08-17T02:01:46.703Z,99.90
2022-08-17T02:04:14.168Z,99.90
2022-08-17T02:06:52.590Z,99.90
2022-08-17T02:09:25.397Z,99.90
2022-08-17T02:11:56.643Z,99.90
2022-08-17T02:14:24.637Z,99.90
2022-08-17T02:16:52.975Z,99.90
2022-08-17T02:19:20.591Z,99.90
2022-08-17T02:21:50.460Z,99.90
2022-08-17T02:25:00.454Z,99.90
2022-08-17T02:27:19.202Z,99.90
2022-08-17T02:29:46.265Z,99.90
2022-08-17T02:32:27.727Z,99.90
2022-08-17T02:34:56.319Z,99.90
2022-08-17T02:37:23.373Z,99.90
2022-08-17T02:39:50.489Z,99.90
2022-08-17T02:42:18.055Z,99.90
2022-08-17T02:44:45.182Z,99.90
2022-08-17T02:47:12.759Z,99.90
2022-08-17T02:49:39.799Z,99.90
2022-08-17T02:52:08.105Z,99.90
2022-08-17T02:54:41.405Z,99.90
2022-08-17T02:57:09.975Z,99.90
2022-08-17T02:59:38.036Z,99.90
2022-08-17T03:02:07.331Z,99.90
2022-08-17T03:04:35.350Z,99.90
2022-08-17T03:07:03.646Z,99.90
2022-08-17T03:09:30.844Z,99.90
2022-08-17T03:12:06.420Z,99.90
2022-08-17T03:14:35.202Z,99.90
2022-08-17T03:17:05.215Z,99.90
2022-08-17T03:19:32.657Z,99.90
2022-08-17T03:22:00.068Z,99.90
2022-08-17T03:24:46.858Z,99.90
2022-08-17T03:27:14.753Z,99.90
2022-08-17T03:29:41.680Z,99.90
2022-08-17T03:32:16.625Z,99.90
2022-08-17T03:34:43.588Z,99.90
2022-08-17T03:37:10.513Z,99.90
2022-08-17T03:39:38.246Z,99.90
2022-08-17T03:42:32.423Z,99.90
2022-08-17T03:45:01.125Z,99.90
2022-08-17T03:47:46.824Z,99.90
2022-08-17T03:50:20.533Z,99.90
2022-08-17T03:53:08.435Z,99.90
2022-08-17T03:55:55.731Z,99.90
2022-08-17T03:58:23.041Z,99.90
2022-08-17T04:00:51.284Z,99.90
2022-08-17T04:03:18.877Z,99.90
2022-08-17T04:05:46.392Z,99.90
2022-08-17T04:08:13.639Z,99.90
2022-08-17T04:10:44.894Z,99.90
2022-08-17T04:13:13.150Z,99.90
2022-08-17T04:15:40.414Z,99.90
2022-08-17T04:18:07.706Z,99.90
2022-08-17T04:20:38.202Z,99.90
2022-08-17T04:23:15.797Z,99.90
2022-08-17T04:25:46.741Z,99.90
2022-08-17T04:28:15.612Z,99.90
2022-08-17T04:30:45.291Z,99.90
2022-08-17T04:33:27.055Z,99.90
2022-08-17T04:35:58.101Z,99.90
2022-08-17T04:38:28.096Z,99.90
2022-08-17T04:41:15.094Z,99.90
2022-08-17T04:43:44.582Z,99.90
2022-08-17T04:46:15.083Z,99.90
2022-08-17T04:48:47.848Z,99.90
2022-08-17T04:51:14.959Z,99.90
2022-08-17T04:53:44.481Z,99.90
2022-08-17T04:56:16.796Z,99.90
2022-08-17T04:58:50.363Z,99.90
2022-08-17T05:01:23.449Z,99.90
2022-08-17T05:03:53.688Z,99.90
2022-08-17T05:06:21.175Z,99.90
2022-08-17T05:08:48.258Z,99.90
2022-08-17T05:11:15.264Z,99.90
2022-08-17T05:13:42.397Z,99.90
2022-08-17T05:16:09.539Z,99.90
2022-08-17T05:18:38.939Z,99.90
2022-08-17T05:21:06.865Z,99.90
2022-08-17T05:23:42.098Z,99.90
2022-08-17T05:26:19.866Z,99.90
2022-08-17T05:28:59.481Z,99.90
2022-08-17T05:31:27.204Z,99.90
2022-08-17T05:33:54.276Z,99.90
2022-08-17T05:36:41.902Z,99.90
2022-08-17T05:39:08.796Z,99.90
2022-08-17T05:41:40.575Z,99.90
2022-08-17T05:44:07.564Z,99.90
2022-08-17T05:46:41.359Z,99.90
2022-08-17T05:49:08.598Z,99.90
2022-08-17T05:51:55.568Z,99.90
2022-08-17T05:54:39.513Z,99.90
2022-08-17T05:57:11.077Z,99.90
2022-08-17T06:00:15.434Z,99.90
2022-08-17T06:03:15.278Z,99.90
2022-08-17T06:06:06.254Z,99.90
2022-08-17T06:08:56.054Z,99.90
2022-08-17T06:11:37.525Z,99.90
2022-08-17T06:14:33.435Z,99.90
2022-08-17T06:17:02.490Z,99.90
2022-08-17T06:19:51.461Z,99.90
2022-08-17T06:22:20.891Z,99.90
2022-08-17T06:25:03.148Z,99.90
2022-08-17T06:27:48.722Z,99.90
2022-08-17T06:30:27.436Z,99.90
2022-08-17T06:32:59.572Z,99.90
2022-08-17T06:35:41.120Z,99.90
2022-08-17T06:38:43.501Z,99.90
2022-08-17T06:41:49.716Z,99.90
2022-08-17T06:44:47.576Z,99.90
2022-08-17T06:47:28.480Z,99.90
2022-08-17T06:50:14.648Z,99.90
2022-08-17T06:52:54.529Z,99.90
2022-08-17T06:55:32.197Z,99.90
2022-08-17T06:58:15.575Z,99.90
2022-08-17T07:00:47.190Z,99.90
2022-08-17T07:03:37.941Z,99.90
2022-08-17T07:06:53.153Z,99.90
2022-08-17T07:09:29.585Z,99.90
2022-08-17T07:12:03.335Z,99.90
2022-08-17T07:14:56.455Z,99.90
2022-08-17T07:17:46.993Z,99.90
2022-08-17T07:20:16.326Z,99.90
2022-08-17T07:23:06.234Z,99.90
2022-08-17T07:25:33.270Z,99.90
2022-08-17T07:28:04.238Z,99.90
2022-08-17T07:30:49.357Z,99.90
2022-08-17T07:33:24.547Z,99.90
2022-08-17T07:35:52.200Z,99.90
2022-08-17T07:38:26.859Z,99.90
2022-08-17T07:40:58.151Z,99.90
2022-08-17T07:43:37.242Z,99.90
2022-08-17T07:46:50.648Z,99.90
2022-08-17T07:49:44.793Z,99.90
2022-08-17T07:52:51.408Z,99.90
2022-08-17T07:55:40.543Z,99.90
2022-08-17T07:58:08.516Z,99.90
2022-08-17T08:00:37.897Z,99.90
2022-08-17T08:03:15.747Z,99.90
2022-08-17T08:05:56.799Z,99.90
2022-08-17T08:08:43.831Z,99.90
2022-08-17T08:11:15.741Z,99.90
2022-08-17T08:13:45.856Z,99.90
2022-08-17T08:16:30.360Z,99.90
2022-08-17T08:19:00.490Z,99.90
2022-08-17T08:21:30.374Z,99.90
2022-08-17T08:24:00.445Z,99.90
2022-08-17T08:26:54.029Z,99.90
2022-08-17T08:30:05.072Z,99.90
2022-08-17T08:32:35.159Z,99.90
2022-08-17T08:35:33.841Z,99.90
2022-08-17T08:38:34.644Z,99.90
2022-08-17T08:41:22.055Z,99.90
2022-08-17T08:44:16.974Z,99.90
2022-08-17T08:47:02.873Z,99.90
2022-08-17T08:50:37.321Z,99.90
2022-08-17T08:53:21.434Z,99.90
2022-08-17T08:55:54.317Z,99.90
2022-08-17T08:58:50.921Z,99.90
2022-08-17T09:01:55.792Z,99.90
2022-08-17T09:05:12.906Z,99.90
2022-08-17T09:07:58.778Z,99.90
2022-08-17T09:10:56.808Z,99.90
2022-08-17T09:13:54.302Z,99.90
2022-08-17T09:16:33.269Z,99.90
2022-08-17T09:19:35.373Z,99.90
2022-08-17T09:22:19.297Z,99.90
2022-08-17T09:25:17.561Z,99.90
2022-08-17T09:28:00.504Z,99.90
2022-08-17T09:30:36.515Z,99.90
2022-08-17T09:33:08.365Z,99.90
2022-08-17T09:36:03.046Z,99.90
2022-08-17T09:38:56.006Z,99.90
2022-08-17T09:41:48.901Z,99.90
2022-08-17T09:44:23.162Z,99.10
2022-08-17T09:47:08.057Z,99.90
2022-08-17T09:49:40.664Z,99.90
2022-08-17T09:52:22.908Z,98.90
2022-08-17T09:54:51.752Z,99.40
2022-08-17T09:57:33.145Z,99.60
2022-08-17T10:00:32.311Z,99.00
2022-08-17T10:03:28.321Z,98.50
2022-08-17T10:06:02.755Z,98.60
2022-08-17T10:08:53.129Z,98.00
2022-08-17T10:11:57.535Z,98.10
2022-08-17T10:15:08.035Z,97.80
2022-08-17T10:17:50.746Z,97.20
2022-08-17T10:20:33.331Z,96.60
2022-08-17T10:23:30.346Z,96.80
2022-08-17T10:26:24.895Z,96.30
2022-08-17T10:29:19.816Z,97.20
2022-08-17T10:31:51.925Z,95.40
2022-08-17T10:34:49.117Z,96.30
2022-08-17T10:37:43.002Z,94.20
2022-08-17T10:40:37.004Z,93.80
2022-08-17T10:43:22.988Z,93.00
2022-08-17T10:46:10.664Z,93.20
2022-08-17T10:49:12.478Z,93.00
2022-08-17T10:51:42.023Z,92.80
2022-08-17T10:54:58.083Z,93.10
2022-08-17T10:57:34.586Z,93.10
2022-08-17T11:00:02.311Z,92.40
2022-08-17T11:02:38.178Z,92.60
2022-08-17T11:05:11.285Z,92.70
2022-08-17T11:07:58.577Z,92.40
2022-08-17T11:10:58.635Z,92.10
2022-08-17T11:13:35.408Z,92.30
2022-08-17T11:16:25.560Z,91.90
2022-08-17T11:19:11.117Z,92.90
2022-08-17T11:22:16.198Z,92.60
2022-08-17T11:24:47.879Z,92.10
2022-08-17T11:27:31.072Z,92.50
2022-08-17T11:30:12.969Z,92.60
2022-08-17T11:32:54.439Z,91.80
2022-08-17T11:35:21.687Z,91.90
2022-08-17T11:38:00.757Z,90.50
2022-08-17T11:40:52.548Z,90.80
2022-08-17T11:43:44.288Z,90.80
2022-08-17T11:46:23.325Z,90.60
2022-08-17T11:49:11.883Z,90.40
2022-08-17T11:52:01.170Z,90.50
2022-08-17T11:54:33.235Z,90.80
2022-08-17T11:57:21.557Z,90.90
2022-08-17T11:59:48.497Z,90.90
2022-08-17T12:02:21.590Z,90.80
2022-08-17T12:05:27.398Z,90.50
2022-08-17T12:08:07.954Z,89.30
2022-08-17T12:10:39.888Z,89.50
2022-08-17T12:13:12.837Z,90.20
2022-08-17T12:15:49.509Z,89.40
2022-08-17T12:18:32.338Z,90.00
2022-08-17T12:21:34.756Z,88.70
2022-08-17T12:24:13.580Z,90.00
2022-08-17T12:26:44.063Z,90.10
2022-08-17T12:29:38.868Z,90.60
2022-08-17T12:32:06.869Z,90.20
2022-08-17T12:34:41.955Z,90.60
2022-08-17T12:37:16.954Z,91.50
2022-08-17T12:39:56.803Z,90.70
2022-08-17T12:42:29.328Z,90.50
2022-08-17T12:44:56.273Z,90.70
2022-08-17T12:47:23.346Z,90.60
2022-08-17T12:49:52.740Z,90.30
2022-08-17T12:52:40.834Z,90.90
2022-08-17T12:55:21.416Z,90.30
2022-08-17T12:57:59.732Z,90.50
2022-08-17T13:00:35.309Z,90.60
2022-08-17T13:03:09.499Z,90.00
2022-08-17T13:05:43.543Z,91.20
2022-08-17T13:08:16.972Z,90.30
2022-08-17T13:10:53.856Z,90.10
2022-08-17T13:13:24.497Z,90.40
2022-08-17T13:16:00.766Z,90.20
2022-08-17T13:18:35.877Z,90.30
2022-08-17T13:21:03.142Z,90.50
2022-08-17T13:23:34.338Z,90.50
2022-08-17T13:26:09.307Z,90.50
2022-08-17T13:28:37.533Z,90.40
2022-08-17T13:31:27.817Z,90.70
2022-08-17T13:34:13.344Z,90.70
2022-08-17T13:36:41.280Z,90.50
2022-08-17T13:39:21.154Z,90.10
2022-08-17T13:41:50.491Z,90.60
2022-08-17T13:44:39.263Z,90.80
2022-08-17T13:47:17.390Z,91.10
2022-08-17T13:49:48.822Z,91.60
2022-08-17T13:52:37.930Z,91.50
2022-08-17T13:55:20.201Z,91.50
2022-08-17T13:57:49.791Z,91.80
2022-08-17T14:00:36.375Z,92.20
2022-08-17T14:03:05.243Z,92.10
2022-08-17T14:05:33.746Z,92.10
2022-08-17T14:08:06.789Z,91.90
2022-08-17T14:10:36.337Z,91.70
2022-08-17T14:13:03.765Z,92.00
2022-08-17T14:15:56.267Z,91.60
2022-08-17T14:18:31.231Z,91.80
2022-08-17T14:21:08.395Z,91.70
2022-08-17T14:23:36.565Z,92.00
2022-08-17T14:26:03.977Z,91.80
2022-08-17T14:28:30.829Z,92.00
2022-08-17T14:31:00.409Z,92.20
2022-08-17T14:33:28.566Z,91.60
2022-08-17T14:35:56.802Z,91.40
2022-08-17T14:38:23.650Z,91.80
2022-08-17T14:40:50.617Z,91.60
2022-08-17T14:43:18.664Z,91.20
2022-08-17T14:45:45.691Z,91.40
2022-08-17T14:48:13.114Z,91.50
2022-08-17T14:50:42.529Z,91.10
2022-08-17T14:53:11.728Z,91.00
2022-08-17T14:55:40.528Z,91.00
2022-08-17T14:58:08.924Z,91.00
2022-08-17T15:00:36.640Z,91.40
2022-08-17T15:03:05.327Z,90.60
2022-08-17T15:05:37.699Z,91.10
2022-08-17T15:08:06.003Z,91.10
2022-08-17T15:10:33.324Z,91.20
2022-08-17T15:13:00.503Z,91.70
2022-08-17T15:15:28.840Z,91.40
2022-08-17T15:17:55.977Z,91.60
2022-08-17T15:20:26.763Z,91.60
2022-08-17T15:22:57.568Z,91.90
2022-08-17T15:25:35.274Z,92.00
2022-08-17T15:28:02.391Z,92.20
2022-08-17T15:30:30.161Z,92.00
2022-08-17T15:32:59.022Z,91.90
2022-08-17T15:35:30.713Z,92.10
2022-08-17T15:38:10.589Z,92.70
2022-08-17T15:40:43.554Z,93.20
2022-08-17T15:43:27.424Z,93.20
2022-08-17T15:46:17.282Z,93.80
2022-08-17T15:48:47.101Z,93.80
2022-08-17T15:51:15.489Z,94.00
2022-08-17T15:53:48.411Z,94.80
2022-08-17T15:56:16.110Z,95.20
2022-08-17T15:58:44.543Z,95.50
2022-08-17T16:01:16.583Z,96.00
2022-08-17T16:04:04.656Z,96.40
2022-08-17T16:06:34.552Z,96.80
2022-08-17T16:09:05.589Z,96.50
2022-08-17T16:11:32.524Z,96.80
2022-08-17T16:13:59.322Z,97.10
2022-08-17T16:16:26.197Z,97.40
2022-08-17T16:18:59.204Z,97.80
2022-08-17T16:21:26.811Z,97.90
2022-08-17T16:23:57.844Z,98.00
2022-08-17T16:26:25.301Z,98.10
2022-08-17T16:28:53.254Z,98.00
2022-08-17T16:31:20.933Z,98.10
2022-08-17T16:33:58.498Z,98.50
2022-08-17T16:36:38.095Z,98.30
2022-08-17T16:39:04.907Z,98.60
2022-08-17T16:41:44.491Z,98.90
2022-08-17T16:44:20.032Z,99.20
2022-08-17T16:46:48.906Z,99.60
2022-08-17T16:49:35.537Z,99.60
2022-08-17T16:52:06.527Z,99.70
2022-08-17T16:54:33.483Z,99.90
2022-08-17T16:57:00.393Z,99.90
2022-08-17T16:59:38.781Z,99.90
2022-08-17T17:02:11.112Z,99.90
2022-08-17T17:05:02.741Z,99.90
2022-08-17T17:07:35.482Z,99.90
2022-08-17T17:10:07.755Z,99.90
2022-08-17T17:13:01.024Z,99.90
2022-08-17T17:15:29.972Z,99.90
2022-08-17T17:18:07.044Z,99.90
2022-08-17T17:20:47.674Z,99.90
2022-08-17T17:23:29.503Z,99.90
2022-08-17T17:26:02.563Z,99.90
2022-08-17T17:28:52.838Z,99.90
2022-08-17T17:31:23.810Z,99.90
2022-08-17T17:33:55.955Z,99.90
2022-08-17T17:36:25.562Z,99.90
2022-08-17T17:39:14.100Z,99.90
2022-08-17T17:41:57.843Z,99.90
2022-08-17T17:44:33.220Z,99.90
2022-08-17T17:47:02.627Z,99.90
2022-08-17T17:49:44.450Z,99.90
2022-08-17T17:52:41.110Z,99.90
2022-08-17T17:55:21.464Z,99.90
2022-08-17T17:58:06.501Z,99.90
2022-08-17T18:00:54.979Z,99.90
2022-08-17T18:03:51.342Z,99.90
2022-08-17T18:06:23.889Z,99.90
2022-08-17T18:09:10.539Z,99.90
2022-08-17T18:11:54.026Z,99.90
2022-08-17T18:14:56.759Z,99.90
2022-08-17T18:17:24.099Z,99.90
2022-08-17T18:19:51.181Z,99.90
2022-08-17T18:22:22.386Z,99.90
2022-08-17T18:24:56.190Z,99.90
2022-08-17T18:27:35.446Z,99.90
2022-08-17T18:30:25.431Z,99.90
2022-08-17T18:32:53.113Z,99.90
2022-08-17T18:35:19.890Z,99.90
2022-08-17T18:37:55.963Z,99.90
2022-08-17T18:40:27.877Z,99.90
2022-08-17T18:43:00.289Z,99.90
2022-08-17T18:45:43.821Z,99.90
2022-08-17T18:48:34.019Z,99.90
2022-08-17T18:51:39.758Z,99.90
2022-08-17T18:54:19.506Z,99.90
2022-08-17T18:56:53.696Z,99.90
2022-08-17T18:59:27.075Z,99.90
2022-08-17T19:01:59.988Z,99.90
2022-08-17T19:04:37.531Z,99.90
2022-08-17T19:07:04.349Z,99.90
2022-08-17T19:09:36.628Z,99.90
2022-08-17T19:12:08.282Z,99.90
2022-08-17T19:14:36.105Z,99.90
2022-08-17T19:17:15.985Z,99.90
2022-08-17T19:20:07.398Z,99.90
2022-08-17T19:22:49.843Z,99.90
2022-08-17T19:25:23.751Z,99.90
2022-08-17T19:28:21.591Z,99.90
2022-08-17T19:30:56.077Z,99.90
2022-08-17T19:33:23.330Z,99.90
2022-08-17T19:36:26.447Z,99.90
2022-08-17T19:39:17.622Z,99.90
2022-08-17T19:42:02.124Z,99.90
2022-08-17T19:44:35.379Z,99.90
2022-08-17T19:47:11.141Z,99.90
2022-08-17T19:50:02.452Z,99.90
2022-08-17T19:52:37.566Z,99.90
2022-08-17T19:55:23.043Z,99.90
2022-08-17T19:57:56.036Z,99.90
2022-08-17T20:00:23.554Z,99.90
2022-08-17T20:03:16.662Z,99.90
2022-08-17T20:06:12.209Z,99.90
2022-08-17T20:09:00.677Z,99.90
2022-08-17T20:11:49.820Z,99.90
2022-08-17T20:14:22.145Z,99.90
2022-08-17T20:16:49.647Z,99.90
2022-08-17T20:19:51.925Z,99.90
2022-08-17T20:22:51.828Z,99.90
2022-08-17T20:25:35.514Z,99.90
2022-08-17T20:28:25.502Z,99.90
2022-08-17T20:30:52.813Z,99.90
2022-08-17T20:33:37.806Z,99.90
2022-08-17T20:36:16.582Z,99.90
2022-08-17T20:38:56.738Z,99.90
2022-08-17T20:41:29.262Z,99.90
2022-08-17T20:43:59.258Z,99.90
2022-08-17T20:46:32.859Z,99.90
2022-08-17T20:49:08.876Z,99.90
2022-08-17T20:52:03.341Z,99.90
2022-08-17T20:54:44.773Z,99.90
2022-08-17T20:57:43.560Z,99.90
2022-08-17T21:00:26.983Z,99.90
2022-08-17T21:03:22.750Z,99.90
2022-08-17T21:05:59.786Z,99.90
2022-08-17T21:08:36.792Z,99.90
2022-08-17T21:12:03.306Z,99.90
2022-08-17T21:14:31.642Z,99.90
2022-08-17T21:17:30.598Z,99.90
2022-08-17T21:20:12.663Z,99.90
2022-08-17T21:30:53.729Z,99.90
2022-08-17T21:34:37.220Z,99.90
2022-08-17T21:37:24.155Z,99.90
2022-08-17T21:39:54.143Z,99.90
2022-08-17T21:42:34.495Z,99.90
2022-08-17T21:45:12.499Z,99.90
2022-08-17T21:47:43.675Z,99.90
2022-08-17T21:50:23.425Z,99.90
2022-08-17T21:52:54.186Z,99.90
2022-08-17T21:55:28.259Z,99.90
2022-08-17T21:58:13.848Z,99.90
2022-08-17T22:00:44.669Z,99.90
2022-08-17T22:03:24.329Z,99.90
2022-08-17T22:05:51.756Z,99.90
2022-08-17T22:08:24.573Z,99.90
2022-08-17T22:11:01.276Z,99.90
2022-08-17T22:13:29.713Z,99.90
2022-08-17T22:16:27.899Z,99.90
2022-08-17T22:19:06.759Z,99.90
2022-08-17T22:21:33.584Z,99.90
2022-08-17T22:24:15.303Z,99.90
2022-08-17T22:27:11.750Z,99.90
2022-08-17T22:29:59.528Z,99.90
2022-08-17T22:32:56.171Z,99.90
2022-08-17T22:35:36.283Z,99.90
2022-08-17T22:38:18.410Z,99.90
2022-08-17T22:41:16.775Z,99.90
2022-08-17T22:43:44.809Z,99.90
2022-08-17T22:46:12.498Z,99.90
2022-08-17T22:48:51.679Z,99.90
2022-08-17T22:51:23.061Z,99.90
2022-08-17T22:54:32.088Z,99.90
2022-08-17T22:57:22.158Z,99.90
2022-08-17T22:59:51.772Z,99.90
2022-08-17T23:02:24.464Z,99.90
2022-08-17T23:05:18.830Z,99.90
2022-08-17T23:07:47.515Z,99.90
2022-08-17T23:10:15.284Z,99.90
2022-08-17T23:12:42.401Z,99.90
2022-08-17T23:15:14.370Z,99.90
2022-08-17T23:17:42.012Z,99.90
2022-08-17T23:20:12.492Z,99.90
2022-08-17T23:22:52.131Z,99.90
2022-08-17T23:25:27.062Z,99.90
2022-08-17T23:27:54.530Z,99.90
2022-08-17T23:30:25.574Z,99.90
2022-08-17T23:32:54.293Z,99.90
2022-08-17T23:35:40.013Z,99.90
2022-08-17T23:38:09.896Z,99.90
2022-08-17T23:40:37.855Z,99.90
2022-08-17T23:43:24.760Z,99.90
2022-08-17T23:45:57.964Z,99.90
2022-08-17T23:48:35.245Z,99.90
2022-08-17T23:51:05.853Z,99.90
2022-08-17T23:53:36.289Z,99.90
2022-08-17T23:56:09.368Z,99.90
2022-08-17T23:58:42.313Z,99.90
